createdAt,value
2017-08-25T00:01:13.924Z,58.20
2017-08-25T00:03:41.491Z,57.70
2017-08-25T00:06:09.019Z,56.70
2017-08-25T00:08:36.574Z,56.20
2017-08-25T00:11:04.157Z,54.90
2017-08-25T00:13:31.697Z,54.30
2017-08-25T00:15:59.284Z,53.60
2017-08-25T00:18:26.792Z,53.10
2017-08-25T00:20:54.285Z,52.80
2017-08-25T00:23:22.426Z,52.50
2017-08-25T00:25:49.911Z,52.30
2017-08-25T00:28:17.442Z,52.30
2017-08-25T00:30:44.979Z,52.20
2017-08-25T00:33:12.497Z,52.20
2017-08-25T00:35:40.393Z,52.20
2017-08-25T00:38:08.537Z,52.30
2017-08-25T00:40:36.038Z,52.30
2017-08-25T00:43:03.725Z,52.20
2017-08-25T00:45:31.229Z,52.10
2017-08-25T00:47:58.745Z,52.10
2017-08-25T00:50:26.320Z,52.20
2017-08-25T00:52:53.831Z,52.10
2017-08-25T00:55:21.323Z,52.20
2017-08-25T00:57:48.885Z,52.10
2017-08-25T01:00:16.435Z,52.10
2017-08-25T01:02:44.004Z,52.00
2017-08-25T01:05:11.612Z,51.90
2017-08-25T01:07:39.118Z,52.00
2017-08-25T01:10:06.639Z,51.80
2017-08-25T01:12:34.205Z,51.30
2017-08-25T01:15:01.706Z,51.20
2017-08-25T01:17:29.229Z,51.20
2017-08-25T01:19:56.795Z,51.20
2017-08-25T01:22:24.321Z,51.20
2017-08-25T01:24:51.852Z,51.30
2017-08-25T01:27:19.479Z,51.10
2017-08-25T01:29:47.028Z,51.20
2017-08-25T01:32:14.621Z,51.10
2017-08-25T01:34:42.192Z,51.00
2017-08-25T01:37:09.707Z,51.10
2017-08-25T01:39:37.219Z,51.10
2017-08-25T01:42:04.796Z,51.10
2017-08-25T01:44:32.321Z,51.20
2017-08-25T01:46:59.844Z,51.30
2017-08-25T01:49:27.407Z,51.20
2017-08-25T01:51:54.901Z,51.30
2017-08-25T01:54:22.462Z,51.30
2017-08-25T01:56:49.966Z,51.20
2017-08-25T01:59:17.602Z,51.30
2017-08-25T02:01:45.200Z,51.30
2017-08-25T02:04:12.750Z,51.30
2017-08-25T02:06:40.270Z,51.20
2017-08-25T02:09:07.826Z,51.20
2017-08-25T02:11:35.363Z,51.30
2017-08-25T02:14:02.879Z,51.30
2017-08-25T02:16:30.412Z,51.60
2017-08-25T02:18:57.966Z,51.80
2017-08-25T02:21:25.514Z,52.10
2017-08-25T02:23:53.014Z,52.30
2017-08-25T02:26:20.518Z,52.40
2017-08-25T02:28:48.136Z,52.60
2017-08-25T02:31:15.684Z,52.60
2017-08-25T02:33:43.220Z,52.70
2017-08-25T02:36:10.758Z,52.80
2017-08-25T02:38:38.267Z,52.80
2017-08-25T02:41:05.761Z,52.90
2017-08-25T02:43:33.313Z,53.10
2017-08-25T02:46:00.931Z,53.10
2017-08-25T02:48:28.450Z,53.10
2017-08-25T02:50:55.960Z,53.10
2017-08-25T02:53:23.532Z,53.10
2017-08-25T02:55:51.031Z,53.20
2017-08-25T02:58:18.532Z,53.20
2017-08-25T03:00:46.083Z,53.30
2017-08-25T03:03:13.590Z,53.30
2017-08-25T03:05:41.589Z,53.30
2017-08-25T03:08:09.088Z,53.30
2017-08-25T03:10:36.789Z,53.30
2017-08-25T03:13:04.308Z,53.30
2017-08-25T03:15:31.821Z,53.60
2017-08-25T03:17:59.534Z,53.60
2017-08-25T03:20:27.045Z,53.60
2017-08-25T03:22:54.553Z,53.80
2017-08-25T03:25:22.100Z,53.80
2017-08-25T03:27:49.615Z,53.70
2017-08-25T03:30:17.118Z,53.80
2017-08-25T03:32:44.664Z,53.70
2017-08-25T03:35:12.160Z,53.70
2017-08-25T03:37:39.713Z,53.70
2017-08-25T03:40:07.204Z,53.60
2017-08-25T03:42:34.730Z,53.40
2017-08-25T03:45:02.285Z,53.40
2017-08-25T03:47:29.804Z,53.50
2017-08-25T03:49:57.338Z,53.50
2017-08-25T03:52:25.615Z,54.40
2017-08-25T03:54:53.137Z,53.80
2017-08-25T03:57:20.695Z,53.80
2017-08-25T03:59:48.180Z,53.90
2017-08-25T04:02:15.714Z,53.90
2017-08-25T04:04:43.270Z,53.80
2017-08-25T04:07:10.813Z,53.80
2017-08-25T04:09:38.288Z,53.80
2017-08-25T04:12:05.881Z,53.80
2017-08-25T04:14:33.409Z,54.30
2017-08-25T04:17:00.939Z,53.70
2017-08-25T04:19:28.462Z,53.60
2017-08-25T04:21:55.977Z,53.60
2017-08-25T04:24:23.497Z,53.70
2017-08-25T04:26:51.034Z,53.70
2017-08-25T04:29:18.552Z,53.80
2017-08-25T04:31:46.195Z,53.80
2017-08-25T04:34:13.682Z,53.70
2017-08-25T04:36:41.211Z,53.70
2017-08-25T04:39:08.770Z,53.70
2017-08-25T04:41:36.300Z,53.70
2017-08-25T04:44:03.991Z,53.80
2017-08-25T04:46:31.535Z,53.70
2017-08-25T04:48:59.027Z,53.70
2017-08-25T04:51:26.542Z,53.70
2017-08-25T04:53:54.091Z,53.80
2017-08-25T04:56:21.654Z,53.80
2017-08-25T04:58:50.469Z,53.80
2017-08-25T05:01:17.979Z,53.80
2017-08-25T05:03:45.556Z,53.70
2017-08-25T05:06:13.119Z,53.80
2017-08-25T05:08:40.636Z,53.60
2017-08-25T05:11:08.174Z,53.80
2017-08-25T05:13:35.671Z,53.90
2017-08-25T05:16:03.219Z,53.90
2017-08-25T05:18:30.784Z,54.10
2017-08-25T05:20:58.336Z,54.00
2017-08-25T05:23:25.839Z,54.20
2017-08-25T05:25:53.370Z,54.50
2017-08-25T05:28:20.855Z,54.40
2017-08-25T05:30:49.173Z,54.40
2017-08-25T05:33:16.757Z,54.40
2017-08-25T05:35:44.253Z,54.30
2017-08-25T05:38:11.793Z,54.30
2017-08-25T05:40:39.350Z,54.40
2017-08-25T05:43:06.848Z,54.40
2017-08-25T05:45:34.361Z,54.50
2017-08-25T05:48:01.914Z,54.40
2017-08-25T05:50:29.474Z,54.40
2017-08-25T05:52:56.990Z,54.40
2017-08-25T05:55:24.642Z,54.30
2017-08-25T05:57:52.206Z,54.80
2017-08-25T06:00:19.707Z,54.30
2017-08-25T06:02:47.210Z,54.10
2017-08-25T06:05:14.901Z,54.00
2017-08-25T06:07:42.417Z,53.90
2017-08-25T06:10:09.899Z,53.70
2017-08-25T06:12:37.423Z,53.70
2017-08-25T06:15:04.981Z,53.70
2017-08-25T06:17:32.490Z,54.40
2017-08-25T06:20:00.051Z,53.80
2017-08-25T06:22:27.599Z,54.00
2017-08-25T06:24:55.110Z,54.00
2017-08-25T06:27:22.609Z,53.90
2017-08-25T06:29:50.159Z,53.70
2017-08-25T06:32:17.699Z,53.80
2017-08-25T06:34:45.207Z,54.00
2017-08-25T06:37:12.756Z,54.10
2017-08-25T06:39:40.254Z,54.20
2017-08-25T06:42:07.761Z,54.20
2017-08-25T06:44:35.315Z,54.30
2017-08-25T06:47:02.827Z,54.30
2017-08-25T06:49:30.332Z,54.30
2017-08-25T06:51:57.915Z,54.00
2017-08-25T06:54:25.434Z,54.00
2017-08-25T06:56:52.979Z,53.80
2017-08-25T06:59:20.487Z,53.90
2017-08-25T07:01:48.013Z,53.90
2017-08-25T07:04:15.561Z,54.00
2017-08-25T07:06:43.047Z,54.00
2017-08-25T07:09:10.610Z,54.50
2017-08-25T07:11:38.112Z,53.80
2017-08-25T07:14:05.686Z,53.60
2017-08-25T07:16:33.179Z,53.60
2017-08-25T07:19:00.719Z,53.40
2017-08-25T07:21:28.262Z,53.10
2017-08-25T07:23:55.826Z,52.90
2017-08-25T07:26:23.386Z,52.70
2017-08-25T07:28:50.890Z,52.60
2017-08-25T07:31:18.400Z,52.40
2017-08-25T07:33:45.962Z,52.00
2017-08-25T07:36:13.484Z,51.30
2017-08-25T07:38:40.980Z,50.90
2017-08-25T07:41:08.534Z,51.00
2017-08-25T07:43:36.053Z,50.90
2017-08-25T07:46:03.604Z,50.90
2017-08-25T07:48:31.139Z,50.80
2017-08-25T07:50:58.660Z,50.50
2017-08-25T07:53:26.204Z,50.00
2017-08-25T07:55:53.732Z,50.00
2017-08-25T07:58:21.275Z,49.90
2017-08-25T08:00:50.198Z,49.70
2017-08-25T08:03:17.815Z,49.70
2017-08-25T08:05:45.390Z,49.70
2017-08-25T08:08:13.008Z,49.70
2017-08-25T08:10:40.590Z,49.70
2017-08-25T08:13:08.069Z,49.70
2017-08-25T08:15:35.572Z,49.70
2017-08-25T08:18:03.130Z,49.60
2017-08-25T08:20:30.630Z,49.20
2017-08-25T08:22:58.619Z,49.10
2017-08-25T08:25:26.220Z,48.90
2017-08-25T08:27:53.734Z,48.80
2017-08-25T08:30:21.407Z,48.60
2017-08-25T08:32:48.952Z,48.70
2017-08-25T08:35:16.520Z,48.60
2017-08-25T08:37:44.080Z,48.70
2017-08-25T08:40:11.600Z,48.80
2017-08-25T08:42:39.174Z,49.10
2017-08-25T08:45:06.814Z,49.10
2017-08-25T08:47:34.375Z,48.80
2017-08-25T08:50:01.868Z,48.90
2017-08-25T08:52:29.416Z,48.70
2017-08-25T08:54:56.932Z,48.40
2017-08-25T08:57:24.443Z,48.30
2017-08-25T08:59:52.012Z,48.40
2017-08-25T09:02:19.580Z,48.50
2017-08-25T09:04:47.123Z,48.60
2017-08-25T09:07:14.684Z,48.70
2017-08-25T09:09:42.231Z,48.50
2017-08-25T09:12:09.737Z,48.10
2017-08-25T09:14:37.231Z,47.90
2017-08-25T09:17:04.775Z,48.10
2017-08-25T09:19:32.314Z,48.40
2017-08-25T09:21:59.827Z,48.40
2017-08-25T09:24:27.363Z,48.70
2017-08-25T09:26:54.875Z,48.80
2017-08-25T09:29:22.409Z,49.00
2017-08-25T09:31:49.964Z,48.80
2017-08-25T09:34:17.525Z,48.60
2017-08-25T09:36:45.042Z,48.50
2017-08-25T09:39:12.558Z,48.60
2017-08-25T09:41:40.136Z,48.60
2017-08-25T09:44:07.628Z,48.70
2017-08-25T09:46:35.123Z,48.70
2017-08-25T09:49:02.685Z,49.40
2017-08-25T09:51:30.174Z,48.50
2017-08-25T09:53:57.681Z,48.20
2017-08-25T09:56:25.246Z,48.10
2017-08-25T09:58:52.739Z,47.70
2017-08-25T10:01:20.424Z,47.20
2017-08-25T10:03:47.985Z,47.20
2017-08-25T10:06:15.488Z,47.50
2017-08-25T10:08:43.027Z,47.70
2017-08-25T10:11:10.529Z,47.40
2017-08-25T10:13:38.090Z,46.70
2017-08-25T10:16:05.577Z,46.60
2017-08-25T10:18:33.092Z,46.10
2017-08-25T10:21:00.624Z,46.10
2017-08-25T10:23:28.116Z,46.30
2017-08-25T10:25:55.694Z,46.10
2017-08-25T10:28:23.206Z,45.70
2017-08-25T10:30:50.768Z,45.80
2017-08-25T10:36:33.517Z,45.40
2017-08-25T10:39:12.993Z,45.40
2017-08-25T10:41:52.307Z,45.00
2017-08-25T10:44:31.656Z,45.10
2017-08-25T10:46:59.253Z,45.20
2017-08-25T10:49:26.765Z,44.70
2017-08-25T10:51:54.287Z,44.10
2017-08-25T10:54:21.823Z,44.00
2017-08-25T10:56:49.318Z,44.00
2017-08-25T10:59:16.901Z,43.80
2017-08-25T11:01:44.414Z,43.50
2017-08-25T11:04:11.957Z,42.90
2017-08-25T11:06:39.516Z,43.70
2017-08-25T11:09:07.049Z,43.20
2017-08-25T11:11:34.561Z,43.00
2017-08-25T11:14:02.133Z,43.10
2017-08-25T11:16:29.676Z,43.10
2017-08-25T11:18:57.191Z,42.90
2017-08-25T11:21:24.730Z,42.50
2017-08-25T11:23:52.224Z,42.50
2017-08-25T11:26:19.727Z,42.10
2017-08-25T11:28:47.292Z,41.90
2017-08-25T11:31:14.827Z,41.70
2017-08-25T11:33:42.318Z,41.50
2017-08-25T11:36:09.875Z,41.40
2017-08-25T11:38:37.398Z,41.10
2017-08-25T11:41:04.964Z,40.70
2017-08-25T11:43:32.520Z,40.10
2017-08-25T11:46:00.012Z,40.60
2017-08-25T11:48:27.536Z,40.10
2017-08-25T11:50:55.091Z,39.00
2017-08-25T11:53:22.603Z,39.00
2017-08-25T11:55:50.403Z,38.60
2017-08-25T11:58:17.935Z,38.40
2017-08-25T12:00:46.218Z,37.70
2017-08-25T12:03:14.526Z,37.90
2017-08-25T12:05:42.927Z,37.90
2017-08-25T12:08:10.512Z,37.10
2017-08-25T12:10:38.061Z,36.70
2017-08-25T12:13:05.591Z,37.00
2017-08-25T12:15:33.148Z,37.40
2017-08-25T12:18:00.693Z,37.60
2017-08-25T12:20:28.248Z,37.50
2017-08-25T12:22:55.772Z,37.60
2017-08-25T12:25:23.308Z,37.60
2017-08-25T12:27:50.880Z,37.50
2017-08-25T12:30:18.438Z,37.60
2017-08-25T12:32:45.989Z,37.20
2017-08-25T12:35:13.513Z,37.20
2017-08-25T12:37:41.706Z,37.40
2017-08-25T12:40:09.540Z,37.30
2017-08-25T12:42:37.045Z,37.20
2017-08-25T12:45:04.793Z,37.30
2017-08-25T12:47:32.339Z,37.40
2017-08-25T12:49:59.876Z,37.10
2017-08-25T12:52:28.210Z,36.90
2017-08-25T12:54:55.710Z,36.80
2017-08-25T12:57:23.194Z,36.60
2017-08-25T12:59:50.751Z,36.60
2017-08-25T13:02:18.258Z,36.10
2017-08-25T13:04:45.805Z,36.00
2017-08-25T13:07:13.334Z,36.30
2017-08-25T13:09:40.852Z,36.10
2017-08-25T13:12:08.397Z,36.10
2017-08-25T13:14:35.965Z,35.90
2017-08-25T13:17:03.494Z,36.00
2017-08-25T13:19:31.001Z,35.90
2017-08-25T13:21:58.625Z,35.90
2017-08-25T13:24:26.162Z,35.70
2017-08-25T13:26:53.676Z,35.70
2017-08-25T13:29:21.265Z,35.80
2017-08-25T13:31:48.832Z,35.90
2017-08-25T13:34:16.329Z,35.70
2017-08-25T13:36:43.826Z,35.90
2017-08-25T13:39:11.368Z,35.90
2017-08-25T13:41:38.907Z,35.70
2017-08-25T13:44:06.431Z,35.50
2017-08-25T13:46:33.947Z,35.30
2017-08-25T13:49:01.508Z,35.20
2017-08-25T13:51:29.023Z,35.00
2017-08-25T13:53:56.556Z,34.70
2017-08-25T13:56:24.116Z,34.60
2017-08-25T13:58:51.676Z,34.50
2017-08-25T14:01:19.913Z,34.30
2017-08-25T14:03:47.415Z,34.30
2017-08-25T14:06:15.083Z,34.30
2017-08-25T14:08:42.595Z,34.00
2017-08-25T14:11:10.121Z,33.80
2017-08-25T14:13:37.662Z,33.80
2017-08-25T14:16:05.169Z,33.90
2017-08-25T14:18:32.685Z,33.80
2017-08-25T14:21:00.234Z,33.70
2017-08-25T14:23:27.763Z,33.60
2017-08-25T14:25:55.342Z,33.60
2017-08-25T14:28:22.872Z,33.60
2017-08-25T14:30:50.358Z,33.60
2017-08-25T14:33:17.941Z,33.60
2017-08-25T14:35:45.454Z,33.80
2017-08-25T14:38:12.997Z,34.10
2017-08-25T14:40:40.536Z,34.10
2017-08-25T14:43:08.088Z,34.30
2017-08-25T14:45:35.596Z,34.40
2017-08-25T14:48:03.933Z,34.70
2017-08-25T14:50:31.441Z,34.70
2017-08-25T14:52:58.960Z,34.90
2017-08-25T14:55:26.498Z,35.00
2017-08-25T14:57:54.306Z,35.20
2017-08-25T15:00:21.873Z,35.40
2017-08-25T15:02:49.379Z,35.60
2017-08-25T15:05:16.916Z,35.70
2017-08-25T15:07:44.487Z,35.90
2017-08-25T15:10:11.978Z,36.00
2017-08-25T15:12:40.749Z,36.10
2017-08-25T15:15:09.095Z,36.10
2017-08-25T15:17:37.501Z,36.10
2017-08-25T15:20:05.460Z,36.10
2017-08-25T15:22:33.006Z,36.20
2017-08-25T15:25:00.581Z,36.20
2017-08-25T15:27:28.176Z,36.40
2017-08-25T15:29:55.674Z,36.20
2017-08-25T15:32:23.190Z,36.10
2017-08-25T15:34:50.740Z,36.30
2017-08-25T15:37:18.279Z,36.10
2017-08-25T15:39:45.853Z,36.10
2017-08-25T15:42:13.375Z,36.10
2017-08-25T15:44:40.929Z,36.00
2017-08-25T15:47:08.454Z,36.10
2017-08-25T15:49:35.969Z,36.00
2017-08-25T15:52:03.551Z,35.80
2017-08-25T15:54:31.142Z,35.60
2017-08-25T15:56:58.663Z,35.20
2017-08-25T15:59:26.361Z,35.00
2017-08-25T16:01:53.888Z,34.90
2017-08-25T16:04:21.469Z,34.80
2017-08-25T16:06:48.952Z,34.50
2017-08-25T16:09:16.512Z,34.10
2017-08-25T16:11:44.023Z,34.10
2017-08-25T16:14:11.510Z,34.10
2017-08-25T16:16:39.101Z,33.80
2017-08-25T16:19:06.617Z,33.80
2017-08-25T16:21:34.130Z,33.80
2017-08-25T16:24:01.709Z,33.60
2017-08-25T16:26:29.209Z,33.50
2017-08-25T16:28:56.745Z,33.50
2017-08-25T16:31:24.292Z,33.40
2017-08-25T16:33:51.860Z,33.30
2017-08-25T16:36:19.428Z,33.40
2017-08-25T16:38:46.953Z,33.50
2017-08-25T16:41:14.487Z,33.40
2017-08-25T16:43:43.387Z,33.30
2017-08-25T16:46:10.909Z,33.30
2017-08-25T16:48:38.416Z,33.40
2017-08-25T16:51:05.977Z,33.20
2017-08-25T16:53:33.567Z,33.30
2017-08-25T16:56:01.141Z,33.50
2017-08-25T16:58:28.653Z,33.50
2017-08-25T17:00:56.981Z,34.00
2017-08-25T17:03:24.966Z,33.90
2017-08-25T17:05:52.470Z,34.10
2017-08-25T17:08:20.055Z,34.40
2017-08-25T17:10:47.557Z,34.70
2017-08-25T17:13:15.110Z,35.00
2017-08-25T17:15:42.634Z,35.30
2017-08-25T17:18:10.155Z,35.30
2017-08-25T17:20:37.700Z,35.50
2017-08-25T17:23:05.217Z,35.60
2017-08-25T17:25:32.746Z,35.90
2017-08-25T17:28:00.294Z,36.00
2017-08-25T17:30:27.827Z,36.10
2017-08-25T17:32:55.376Z,36.30
2017-08-25T17:35:22.976Z,36.50
2017-08-25T17:37:50.475Z,36.80
2017-08-25T17:40:18.039Z,36.80
2017-08-25T17:42:45.534Z,36.90
2017-08-25T17:45:13.068Z,37.10
2017-08-25T17:47:40.713Z,37.20
2017-08-25T17:50:09.164Z,37.30
2017-08-25T17:52:36.646Z,37.30
2017-08-25T17:55:04.605Z,37.40
2017-08-25T17:57:32.503Z,37.50
2017-08-25T18:00:00.540Z,37.50
2017-08-25T18:02:28.052Z,37.80
2017-08-25T18:04:55.628Z,37.90
2017-08-25T18:07:23.137Z,38.00
2017-08-25T18:09:50.668Z,38.10
2017-08-25T18:12:18.165Z,38.10
2017-08-25T18:14:45.683Z,38.30
2017-08-25T18:17:13.227Z,38.30
2017-08-25T18:19:40.742Z,38.30
2017-08-25T18:22:08.239Z,38.40
2017-08-25T18:24:35.830Z,38.80
2017-08-25T18:27:03.357Z,38.70
2017-08-25T18:29:30.892Z,38.80
2017-08-25T18:31:58.387Z,38.90
2017-08-25T18:34:25.926Z,38.90
2017-08-25T18:36:53.497Z,38.90
2017-08-25T18:39:21.057Z,39.00
2017-08-25T18:41:48.559Z,39.00
2017-08-25T18:44:19.016Z,39.10
2017-08-25T18:46:46.559Z,39.20
2017-08-25T18:49:14.976Z,39.20
2017-08-25T18:51:42.504Z,39.20
2017-08-25T18:54:10.040Z,39.30
2017-08-25T18:56:37.555Z,39.30
2017-08-25T18:59:05.097Z,39.40
2017-08-25T19:01:32.663Z,39.40
2017-08-25T19:04:00.222Z,39.50
2017-08-25T19:06:27.779Z,39.50
2017-08-25T19:08:55.330Z,39.50
2017-08-25T19:11:22.846Z,39.60
2017-08-25T19:13:50.404Z,39.60
2017-08-25T19:16:17.918Z,39.50
2017-08-25T19:18:45.506Z,39.60
2017-08-25T19:21:13.823Z,39.80
2017-08-25T19:23:41.343Z,39.70
2017-08-25T19:26:08.868Z,39.70
2017-08-25T19:28:36.389Z,40.00
2017-08-25T19:31:03.923Z,40.20
2017-08-25T19:33:31.434Z,40.40
2017-08-25T19:35:58.961Z,40.40
2017-08-25T19:38:26.573Z,40.40
2017-08-25T19:40:54.088Z,40.40
2017-08-25T19:43:21.667Z,40.60
2017-08-25T19:45:49.218Z,40.70
2017-08-25T19:48:16.735Z,40.80
2017-08-25T19:50:44.275Z,40.80
2017-08-25T19:53:11.768Z,41.50
2017-08-25T19:55:39.423Z,41.00
2017-08-25T19:58:06.929Z,41.10
2017-08-25T20:00:34.505Z,41.30
2017-08-25T20:03:02.047Z,41.40
2017-08-25T20:05:29.563Z,41.50
2017-08-25T20:07:57.130Z,41.70
2017-08-25T20:10:24.642Z,42.00
2017-08-25T20:12:52.168Z,42.20
2017-08-25T20:15:19.744Z,42.30
2017-08-25T20:17:47.242Z,42.40
2017-08-25T20:20:14.744Z,42.60
2017-08-25T20:22:42.302Z,42.70
2017-08-25T20:25:10.258Z,42.80
2017-08-25T20:27:37.768Z,42.90
2017-08-25T20:30:05.566Z,43.10
2017-08-25T20:32:33.129Z,43.10
2017-08-25T20:35:00.660Z,43.20
2017-08-25T20:37:28.148Z,43.20
2017-08-25T20:39:55.665Z,43.40
2017-08-25T20:42:23.174Z,43.50
2017-08-25T20:44:50.714Z,43.60
2017-08-25T20:47:18.266Z,43.80
2017-08-25T20:49:45.767Z,44.00
2017-08-25T20:52:13.297Z,44.00
2017-08-25T20:54:40.807Z,44.40
2017-08-25T20:57:08.361Z,45.00
2017-08-25T20:59:35.846Z,45.40
2017-08-25T21:02:03.347Z,45.70
2017-08-25T21:04:30.891Z,46.60
2017-08-25T21:06:58.380Z,47.20
2017-08-25T21:09:25.936Z,47.70
2017-08-25T21:11:53.640Z,47.90
2017-08-25T21:14:21.145Z,48.10
2017-08-25T21:16:48.706Z,48.10
2017-08-25T21:19:16.210Z,48.30
2017-08-25T21:21:43.774Z,48.30
2017-08-25T21:24:11.300Z,48.20
2017-08-25T21:26:38.802Z,48.40
2017-08-25T21:29:07.090Z,48.40
2017-08-25T21:31:34.583Z,48.30
2017-08-25T21:34:02.126Z,48.30
2017-08-25T21:36:29.654Z,48.30
2017-08-25T21:38:57.222Z,48.30
2017-08-25T21:41:24.717Z,48.30
2017-08-25T21:43:52.279Z,48.40
2017-08-25T21:46:19.794Z,48.40
2017-08-25T21:48:47.312Z,48.30
2017-08-25T21:51:14.826Z,48.20
2017-08-25T21:53:42.312Z,48.30
2017-08-25T21:56:09.858Z,48.40
2017-08-25T21:58:37.395Z,48.60
2017-08-25T22:01:04.936Z,49.00
2017-08-25T22:03:32.449Z,49.10
2017-08-25T22:06:00.051Z,49.20
2017-08-25T22:08:27.573Z,49.40
2017-08-25T22:10:55.074Z,49.50
2017-08-25T22:13:22.630Z,49.30
2017-08-25T22:15:50.144Z,49.40
2017-08-25T22:18:17.685Z,49.40
2017-08-25T22:20:45.266Z,49.30
2017-08-25T22:23:12.768Z,49.20
2017-08-25T22:25:41.033Z,49.10
2017-08-25T22:28:08.519Z,49.00
2017-08-25T22:30:36.085Z,49.00
2017-08-25T22:33:03.632Z,49.10
2017-08-25T22:35:31.171Z,49.00
2017-08-25T22:37:58.696Z,49.00
2017-08-25T22:40:26.240Z,49.00
2017-08-25T22:42:53.796Z,49.00
2017-08-25T22:45:21.322Z,49.10
2017-08-25T22:47:48.879Z,49.20
2017-08-25T22:50:16.395Z,49.30
2017-08-25T22:52:43.979Z,49.40
2017-08-25T22:55:11.489Z,49.60
2017-08-25T22:57:39.023Z,49.70
2017-08-25T23:00:07.253Z,49.90
2017-08-25T23:02:34.767Z,49.90
2017-08-25T23:05:02.458Z,50.30
2017-08-25T23:07:30.031Z,50.50
2017-08-25T23:09:57.537Z,50.60
2017-08-25T23:12:25.074Z,50.90
2017-08-25T23:14:52.608Z,50.90
2017-08-25T23:17:20.206Z,51.20
2017-08-25T23:19:47.707Z,51.20
2017-08-25T23:22:15.190Z,51.40
2017-08-25T23:24:42.734Z,51.60
2017-08-25T23:27:10.226Z,51.70
2017-08-25T23:29:37.728Z,51.70
2017-08-25T23:32:05.269Z,51.80
2017-08-25T23:34:32.799Z,51.80
2017-08-25T23:37:00.367Z,51.70
2017-08-25T23:39:27.957Z,51.70
2017-08-25T23:41:55.554Z,51.80
2017-08-25T23:44:23.044Z,51.80
2017-08-25T23:46:50.560Z,51.80
2017-08-25T23:49:18.147Z,51.80
2017-08-25T23:51:45.683Z,51.90
2017-08-25T23:54:13.253Z,51.80
2017-08-25T23:56:40.769Z,51.70
2017-08-25T23:59:08.320Z,51.90
